createdAt,value
2018-11-02T00:00:37.062Z,1003.62
2018-11-02T00:01:17.471Z,1003.59
2018-11-02T00:01:57.940Z,1003.63
2018-11-02T00:02:38.339Z,1003.59
2018-11-02T00:03:18.825Z,1003.64
2018-11-02T00:03:59.206Z,1003.62
2018-11-02T00:04:39.749Z,1003.59
2018-11-02T00:05:20.156Z,1003.59
2018-11-02T00:06:00.608Z,1003.59
2018-11-02T00:06:41.026Z,1003.49
2018-11-02T00:07:21.423Z,1003.5
2018-11-02T00:08:01.863Z,1003.46
2018-11-02T00:08:42.192Z,1003.38
2018-11-02T00:09:22.598Z,1003.46
2018-11-02T00:10:03.025Z,1003.36
2018-11-02T00:10:43.403Z,1003.35
2018-11-02T00:11:23.812Z,1003.39
2018-11-02T00:12:04.285Z,1003.36
2018-11-02T00:12:44.619Z,1003.39
2018-11-02T00:13:25.324Z,1003.33
2018-11-02T00:14:05.777Z,1003.34
2018-11-02T00:14:46.129Z,1003.34
2018-11-02T00:15:26.550Z,1003.34
2018-11-02T00:16:06.979Z,1003.35
2018-11-02T00:16:47.793Z,1003.38
2018-11-02T00:17:28.285Z,1003.39
2018-11-02T00:18:08.730Z,1003.44
2018-11-02T00:18:49.102Z,1003.47
2018-11-02T00:19:29.829Z,1003.44
2018-11-02T00:20:10.629Z,1003.51
2018-11-02T00:20:51.222Z,1003.52
2018-11-02T00:21:31.669Z,1003.49
2018-11-02T00:22:12.717Z,1003.49
2018-11-02T00:22:52.752Z,1003.5
2018-11-02T00:23:33.297Z,1003.53
2018-11-02T00:24:13.805Z,1003.53
2018-11-02T00:24:54.233Z,1003.58
2018-11-02T00:25:34.903Z,1003.59
2018-11-02T00:26:15.286Z,1003.64
2018-11-02T00:26:55.844Z,1003.59
2018-11-02T00:27:36.201Z,1003.65
2018-11-02T00:28:16.708Z,1003.67
2018-11-02T00:28:57.089Z,1003.67
2018-11-02T00:29:38.259Z,1003.66
2018-11-02T00:30:20.283Z,1003.75
2018-11-02T00:31:00.791Z,1003.71
2018-11-02T00:31:41.202Z,1003.72
2018-11-02T00:32:21.540Z,1003.73
2018-11-02T00:33:03.149Z,1003.63
2018-11-02T00:33:43.716Z,1003.68
2018-11-02T00:34:24.555Z,1003.68
2018-11-02T00:35:05.080Z,1003.67
2018-11-02T00:35:45.520Z,1003.7
2018-11-02T00:36:25.912Z,1003.7
2018-11-02T00:37:06.417Z,1003.69
2018-11-02T00:37:46.868Z,1003.7
2018-11-02T00:38:27.350Z,1003.66
2018-11-02T00:39:07.806Z,1003.7
2018-11-02T00:39:48.230Z,1003.67
2018-11-02T00:40:28.702Z,1003.65
2018-11-02T00:41:09.234Z,1003.66
2018-11-02T00:41:50.269Z,1003.61
2018-11-02T00:42:30.707Z,1003.71
2018-11-02T00:43:11.200Z,1003.69
2018-11-02T00:43:52.267Z,1003.73
2018-11-02T00:44:32.935Z,1003.71
2018-11-02T00:45:13.397Z,1003.75
2018-11-02T00:45:53.856Z,1003.77
2018-11-02T00:46:35.229Z,1003.77
2018-11-02T00:47:16.436Z,1003.77
2018-11-02T00:47:57.471Z,1003.78
2018-11-02T00:48:38.101Z,1003.82
2018-11-02T00:49:18.412Z,1003.82
2018-11-02T00:49:59.090Z,1003.84
2018-11-02T00:50:39.423Z,1003.86
2018-11-02T00:51:20.927Z,1003.91
2018-11-02T00:52:04.247Z,1003.89
2018-11-02T00:52:44.858Z,1003.9
2018-11-02T00:53:25.243Z,1003.94
2018-11-02T00:54:05.689Z,1003.94
2018-11-02T00:54:46.139Z,1003.97
2018-11-02T00:55:26.819Z,1003.96
2018-11-02T00:56:07.372Z,1003.97
2018-11-02T00:56:47.725Z,1004.04
2018-11-02T00:57:28.645Z,1003.98
2018-11-02T00:58:08.645Z,1004.03
2018-11-02T00:58:49.065Z,1004.02
2018-11-02T00:59:29.389Z,1004.04
2018-11-02T01:00:09.932Z,1004.05
2018-11-02T01:00:50.356Z,1004.06
2018-11-02T01:01:30.962Z,1004.07
2018-11-02T01:02:11.434Z,1004.1
2018-11-02T01:02:51.942Z,1004.04
2018-11-02T01:03:32.340Z,1004.06
2018-11-02T01:04:12.884Z,1004.09
2018-11-02T01:04:54.444Z,1004.13
2018-11-02T01:05:34.825Z,1004.1
2018-11-02T01:06:16.123Z,1004.15
2018-11-02T01:06:57.014Z,1004.13
2018-11-02T01:07:37.508Z,1004.21
2018-11-02T01:08:17.836Z,1004.19
2018-11-02T01:08:58.821Z,1004.2
2018-11-02T01:09:39.214Z,1004.23
2018-11-02T01:10:19.598Z,1004.26
2018-11-02T01:11:00.033Z,1004.29
2018-11-02T01:11:40.378Z,1004.29
2018-11-02T01:12:21.153Z,1004.29
2018-11-02T01:13:01.601Z,1004.3
2018-11-02T01:13:41.978Z,1004.34
2018-11-02T01:14:22.337Z,1004.34
2018-11-02T01:15:02.788Z,1004.34
2018-11-02T01:15:43.179Z,1004.35
2018-11-02T01:16:23.608Z,1004.37
2018-11-02T01:17:04.104Z,1004.41
2018-11-02T01:17:44.441Z,1004.41
2018-11-02T01:18:24.851Z,1004.42
2018-11-02T01:19:05.251Z,1004.44
2018-11-02T01:19:45.636Z,1004.46
2018-11-02T01:20:26.074Z,1004.44
2018-11-02T01:21:06.474Z,1004.42
2018-11-02T01:21:46.837Z,1004.42
2018-11-02T01:22:27.298Z,1004.46
2018-11-02T01:23:07.737Z,1004.44
2018-11-02T01:23:48.116Z,1004.49
2018-11-02T01:24:28.669Z,1004.43
2018-11-02T01:25:08.993Z,1004.44
2018-11-02T01:25:49.504Z,1004.5
2018-11-02T01:26:29.967Z,1004.51
2018-11-02T01:27:10.441Z,1004.51
2018-11-02T01:27:50.792Z,1004.53
2018-11-02T01:28:31.136Z,1004.54
2018-11-02T01:29:11.592Z,1004.58
2018-11-02T01:29:52.007Z,1004.57
2018-11-02T01:30:35.327Z,1004.63
2018-11-02T01:31:15.750Z,1004.61
2018-11-02T01:31:56.257Z,1004.6
2018-11-02T01:32:36.668Z,1004.64
2018-11-02T01:33:17.105Z,1004.72
2018-11-02T01:33:57.578Z,1004.72
2018-11-02T01:34:37.995Z,1004.77
2018-11-02T01:35:18.600Z,1004.73
2018-11-02T01:35:59.010Z,1004.76
2018-11-02T01:36:39.597Z,1004.75
2018-11-02T01:37:20.280Z,1004.74
2018-11-02T01:38:00.726Z,1004.72
2018-11-02T01:38:41.283Z,1004.75
2018-11-02T01:39:21.597Z,1004.74
2018-11-02T01:40:01.901Z,1004.77
2018-11-02T01:40:42.376Z,1004.75
2018-11-02T01:41:22.822Z,1004.8
2018-11-02T01:42:03.219Z,1004.79
2018-11-02T01:42:44.478Z,1004.84
2018-11-02T01:43:24.853Z,1004.81
2018-11-02T01:44:05.268Z,1004.82
2018-11-02T01:44:45.664Z,1004.83
2018-11-02T01:45:26.207Z,1004.87
2018-11-02T01:46:06.534Z,1004.88
2018-11-02T01:46:46.966Z,1004.86
2018-11-02T01:47:27.341Z,1004.92
2018-11-02T01:48:07.788Z,1004.92
2018-11-02T01:48:48.182Z,1004.91
2018-11-02T01:49:28.562Z,1004.93
2018-11-02T01:50:09.593Z,1004.97
2018-11-02T01:50:50.226Z,1004.97
2018-11-02T01:51:30.658Z,1004.96
2018-11-02T01:52:11.101Z,1004.94
2018-11-02T01:52:51.541Z,1004.93
2018-11-02T01:53:31.937Z,1004.95
2018-11-02T01:54:12.373Z,1004.9
2018-11-02T01:54:52.782Z,1004.92
2018-11-02T01:55:33.352Z,1004.93
2018-11-02T01:56:13.703Z,1004.97
2018-11-02T01:56:54.075Z,1005.01
2018-11-02T01:57:34.517Z,1005.06
2018-11-02T01:58:14.928Z,1005.04
2018-11-02T01:58:55.289Z,1005.07
2018-11-02T01:59:35.825Z,1005.09
2018-11-02T02:00:16.278Z,1005.1
2018-11-02T02:00:56.779Z,1005.09
2018-11-02T02:01:37.214Z,1005.1
2018-11-02T02:02:17.836Z,1005.14
2018-11-02T02:02:58.607Z,1005.14
2018-11-02T02:03:39.194Z,1005.18
2018-11-02T02:04:19.413Z,1005.21
2018-11-02T02:04:59.695Z,1005.23
2018-11-02T02:05:40.705Z,1005.19
2018-11-02T02:06:20.520Z,1005.22
2018-11-02T02:07:00.906Z,1005.22
2018-11-02T02:07:41.300Z,1005.29
2018-11-02T02:08:21.735Z,1005.29
2018-11-02T02:09:02.413Z,1005.29
2018-11-02T02:09:42.766Z,1005.28
2018-11-02T02:10:23.325Z,1005.26
2018-11-02T02:11:03.822Z,1005.29
2018-11-02T02:11:44.201Z,1005.3
2018-11-02T02:12:24.614Z,1005.28
2018-11-02T02:13:05.195Z,1005.32
2018-11-02T02:13:45.679Z,1005.32
2018-11-02T02:14:26.017Z,1005.33
2018-11-02T02:15:06.586Z,1005.38
2018-11-02T02:15:47.081Z,1005.4
2018-11-02T02:16:27.494Z,1005.4
2018-11-02T02:17:07.800Z,1005.41
2018-11-02T02:17:48.230Z,1005.47
2018-11-02T02:18:28.649Z,1005.44
2018-11-02T02:19:09.076Z,1005.46
2018-11-02T02:19:49.494Z,1005.47
2018-11-02T02:20:29.954Z,1005.47
2018-11-02T02:21:10.360Z,1005.49
2018-11-02T02:21:50.785Z,1005.49
2018-11-02T02:22:31.168Z,1005.43
2018-11-02T02:23:11.617Z,1005.5
2018-11-02T02:23:51.965Z,1005.52
2018-11-02T02:24:32.449Z,1005.52
2018-11-02T02:25:12.778Z,1005.6
2018-11-02T02:25:53.206Z,1005.57
2018-11-02T02:26:33.769Z,1005.6
2018-11-02T02:27:14.053Z,1005.56
2018-11-02T02:27:54.919Z,1005.6
2018-11-02T02:28:35.168Z,1005.59
2018-11-02T02:29:15.538Z,1005.6
2018-11-02T02:29:55.942Z,1005.59
2018-11-02T02:30:36.379Z,1005.61
2018-11-02T02:31:16.730Z,1005.64
2018-11-02T02:31:57.121Z,1005.62
2018-11-02T02:32:37.631Z,1005.65
2018-11-02T02:33:18.193Z,1005.7
2018-11-02T02:33:58.518Z,1005.73
2018-11-02T02:34:39.106Z,1005.71
2018-11-02T02:35:19.580Z,1005.71
2018-11-02T02:35:59.873Z,1005.74
2018-11-02T02:36:40.226Z,1005.75
2018-11-02T02:37:20.613Z,1005.77
2018-11-02T02:38:01.164Z,1005.79
2018-11-02T02:38:41.767Z,1005.77
2018-11-02T02:39:22.678Z,1005.86
2018-11-02T02:40:02.591Z,1005.85
2018-11-02T02:40:43.095Z,1005.84
2018-11-02T02:41:23.441Z,1005.88
2018-11-02T02:42:03.944Z,1005.9
2018-11-02T02:42:44.413Z,1005.9
2018-11-02T02:43:24.808Z,1005.9
2018-11-02T02:44:05.234Z,1005.87
2018-11-02T02:44:45.694Z,1005.89
2018-11-02T02:45:25.993Z,1005.91
2018-11-02T02:46:06.533Z,1005.95
2018-11-02T02:46:47.184Z,1005.99
2018-11-02T02:47:27.557Z,1005.97
2018-11-02T02:48:08.014Z,1005.94
2018-11-02T02:48:48.416Z,1005.99
2018-11-02T02:49:29.209Z,1006.02
2018-11-02T02:50:09.559Z,1006
2018-11-02T02:50:49.934Z,1006.01
2018-11-02T02:51:30.300Z,1006.02
2018-11-02T02:52:10.830Z,1006.03
2018-11-02T02:52:51.249Z,1006.02
2018-11-02T02:53:31.670Z,1005.97
2018-11-02T02:54:12.135Z,1006.03
2018-11-02T02:54:52.489Z,1006.05
2018-11-02T02:55:32.926Z,1006.04
2018-11-02T02:56:13.359Z,1006.05
2018-11-02T02:56:54.093Z,1006.06
2018-11-02T02:57:34.367Z,1006.04
2018-11-02T02:58:15.737Z,1006.03
2018-11-02T02:58:56.056Z,1006.06
2018-11-02T02:59:36.458Z,1006.04
2018-11-02T03:00:16.876Z,1006.07
2018-11-02T03:00:57.375Z,1006.06
2018-11-02T03:01:37.726Z,1006.06
2018-11-02T03:02:18.120Z,1006.09
2018-11-02T03:02:58.533Z,1006.14
2018-11-02T03:03:39.270Z,1006.1
2018-11-02T03:04:19.546Z,1006.12
2018-11-02T03:04:59.958Z,1006.12
2018-11-02T03:05:40.346Z,1006.16
2018-11-02T03:06:21.006Z,1006.18
2018-11-02T03:07:01.812Z,1006.18
2018-11-02T03:07:41.963Z,1006.18
2018-11-02T03:08:22.448Z,1006.22
2018-11-02T03:09:03.064Z,1006.22
2018-11-02T03:09:43.430Z,1006.22
2018-11-02T03:10:23.931Z,1006.25
2018-11-02T03:11:04.370Z,1006.3
2018-11-02T03:11:44.576Z,1006.31
2018-11-02T03:12:25.123Z,1006.27
2018-11-02T03:13:05.556Z,1006.35
2018-11-02T03:13:46.453Z,1006.31
2018-11-02T03:14:26.825Z,1006.33
2018-11-02T03:15:07.185Z,1006.38
2018-11-02T03:15:47.840Z,1006.35
2018-11-02T03:16:28.238Z,1006.32
2018-11-02T03:17:08.773Z,1006.36
2018-11-02T03:17:49.717Z,1006.32
2018-11-02T03:18:30.078Z,1006.35
2018-11-02T03:19:10.358Z,1006.38
2018-11-02T03:19:51.496Z,1006.37
2018-11-02T03:20:31.766Z,1006.36
2018-11-02T03:21:12.199Z,1006.41
2018-11-02T03:21:52.812Z,1006.33
2018-11-02T03:22:33.453Z,1006.37
2018-11-02T03:23:13.735Z,1006.42
2018-11-02T03:23:54.218Z,1006.39
2018-11-02T03:24:34.605Z,1006.38
2018-11-02T03:25:15.193Z,1006.31
2018-11-02T03:25:55.730Z,1006.37
2018-11-02T03:26:36.127Z,1006.38
2018-11-02T03:27:16.634Z,1006.42
2018-11-02T03:27:57.098Z,1006.39
2018-11-02T03:28:37.507Z,1006.42
2018-11-02T03:29:17.956Z,1006.45
2018-11-02T03:29:58.413Z,1006.46
2018-11-02T03:30:38.833Z,1006.46
2018-11-02T03:31:19.357Z,1006.47
2018-11-02T03:31:59.755Z,1006.45
2018-11-02T03:32:40.329Z,1006.53
2018-11-02T03:33:20.542Z,1006.51
2018-11-02T03:34:00.931Z,1006.53
2018-11-02T03:34:41.329Z,1006.55
2018-11-02T03:35:21.769Z,1006.59
2018-11-02T03:36:02.509Z,1006.59
2018-11-02T03:36:42.680Z,1006.62
2018-11-02T03:37:23.052Z,1006.63
2018-11-02T03:38:03.530Z,1006.66
2018-11-02T03:38:43.951Z,1006.63
2018-11-02T03:39:24.317Z,1006.63
2018-11-02T03:40:04.763Z,1006.67
2018-11-02T03:40:45.304Z,1006.66
2018-11-02T03:41:25.700Z,1006.7
2018-11-02T03:42:06.137Z,1006.67
2018-11-02T03:42:46.505Z,1006.7
2018-11-02T03:43:26.946Z,1006.69
2018-11-02T03:44:07.381Z,1006.68
2018-11-02T03:44:48.102Z,1006.7
2018-11-02T03:45:28.494Z,1006.7
2018-11-02T03:46:09.010Z,1006.74
2018-11-02T03:46:49.348Z,1006.73
2018-11-02T03:47:29.866Z,1006.74
2018-11-02T03:48:10.473Z,1006.8
2018-11-02T03:48:50.880Z,1006.81
2018-11-02T03:49:31.475Z,1006.85
2018-11-02T03:50:11.657Z,1006.84
2018-11-02T03:50:52.357Z,1006.84
2018-11-02T03:51:32.802Z,1006.93
2018-11-02T03:52:13.373Z,1006.88
2018-11-02T03:52:53.781Z,1006.93
2018-11-02T03:53:34.370Z,1006.93
2018-11-02T03:54:15.312Z,1006.95
2018-11-02T03:54:55.277Z,1006.99
2018-11-02T03:55:35.703Z,1007.02
2018-11-02T03:56:16.163Z,1007.05
2018-11-02T03:56:56.846Z,1007.06
2018-11-02T03:57:37.750Z,1007.01
2018-11-02T03:58:18.028Z,1007.02
2018-11-02T03:58:58.841Z,1007.05
2018-11-02T03:59:39.682Z,1007.09
2018-11-02T04:00:20.240Z,1007.07
2018-11-02T04:01:01.962Z,1007.09
2018-11-02T04:01:43.048Z,1007.1
2018-11-02T04:02:22.971Z,1007.13
2018-11-02T04:03:03.398Z,1007.13
2018-11-02T04:03:43.830Z,1007.15
2018-11-02T04:04:24.518Z,1007.12
2018-11-02T04:05:04.932Z,1007.14
2018-11-02T04:05:45.251Z,1007.17
2018-11-02T04:06:26.185Z,1007.13
2018-11-02T04:07:06.303Z,1007.13
2018-11-02T04:07:46.657Z,1007.15
2018-11-02T04:08:27.147Z,1007.17
2018-11-02T04:09:07.538Z,1007.18
2018-11-02T04:09:48.395Z,1007.16
2018-11-02T04:10:28.457Z,1007.17
2018-11-02T04:11:08.868Z,1007.14
2018-11-02T04:11:49.409Z,1007.13
2018-11-02T04:12:30.431Z,1007.18
2018-11-02T04:13:11.385Z,1007.16
2018-11-02T04:13:51.709Z,1007.18
2018-11-02T04:14:32.253Z,1007.13
2018-11-02T04:15:12.771Z,1007.15
2018-11-02T04:15:53.516Z,1007.17
2018-11-02T04:16:34.052Z,1007.22
2018-11-02T04:17:14.488Z,1007.22
2018-11-02T04:17:54.829Z,1007.26
2018-11-02T04:18:35.412Z,1007.29
2018-11-02T04:19:15.763Z,1007.3
2018-11-02T04:19:56.215Z,1007.3
2018-11-02T04:20:36.731Z,1007.3
2018-11-02T04:21:17.122Z,1007.34
2018-11-02T04:21:57.531Z,1007.35
2018-11-02T04:22:38.152Z,1007.36
2018-11-02T04:23:18.964Z,1007.36
2018-11-02T04:24:02.391Z,1007.36
2018-11-02T04:24:43.427Z,1007.37
2018-11-02T04:25:23.737Z,1007.41
2018-11-02T04:26:04.183Z,1007.43
2018-11-02T04:26:44.548Z,1007.45
2018-11-02T04:27:25.253Z,1007.44
2018-11-02T05:06:53.101Z,1008.15
2018-11-02T05:07:39.294Z,1008.15
2018-11-02T05:08:22.341Z,1008.18
2018-11-02T05:09:02.922Z,1008.18
2018-11-02T05:09:43.765Z,1008.2
2018-11-02T05:10:24.205Z,1008.18
2018-11-02T05:11:04.650Z,1008.26
2018-11-02T05:11:45.444Z,1008.24
2018-11-02T05:12:25.926Z,1008.25
2018-11-02T05:13:06.587Z,1008.24
2018-11-02T05:13:47.078Z,1008.31
2018-11-02T05:14:27.748Z,1008.31
2018-11-02T05:15:07.965Z,1008.35
2018-11-02T05:15:48.619Z,1008.34
2018-11-02T05:16:29.135Z,1008.4
2018-11-02T05:17:09.770Z,1008.39
2018-11-02T05:17:50.310Z,1008.43
2018-11-02T05:18:30.701Z,1008.43
2018-11-02T05:19:11.111Z,1008.45
2018-11-02T05:19:51.492Z,1008.43
2018-11-02T05:20:32.049Z,1008.45
2018-11-02T05:21:12.689Z,1008.42
2018-11-02T05:21:52.882Z,1008.5
2018-11-02T05:22:33.321Z,1008.52
2018-11-02T05:23:13.825Z,1008.57
2018-11-02T05:23:54.168Z,1008.59
2018-11-02T05:24:34.839Z,1008.6
2018-11-02T05:25:15.254Z,1008.65
2018-11-02T05:25:55.888Z,1008.7
2018-11-02T05:26:36.344Z,1008.73
2018-11-02T05:27:17.011Z,1008.74
2018-11-02T05:27:57.347Z,1008.78
2018-11-02T05:28:37.988Z,1008.78
2018-11-02T05:29:18.158Z,1008.81
2018-11-02T05:29:58.818Z,1008.79
2018-11-02T05:30:39.102Z,1008.8
2018-11-02T05:36:10.129Z,1008.95
2018-11-02T05:36:56.469Z,1008.97
2018-11-02T05:38:49.634Z,1009.02
2018-11-02T05:39:30.805Z,1009
2018-11-02T05:40:11.166Z,1009.04
2018-11-02T05:40:51.749Z,1009.04
2018-11-02T05:41:32.253Z,1009.08
2018-11-02T05:42:12.561Z,1009.06
2018-11-02T05:42:52.964Z,1009.07
2018-11-02T05:43:33.357Z,1009.09
2018-11-02T05:44:13.709Z,1009.1
2018-11-02T05:44:54.205Z,1009.13
2018-11-02T05:45:34.676Z,1009.17
2018-11-02T05:46:15.348Z,1009.17
2018-11-02T05:46:55.494Z,1009.18
2018-11-02T05:47:35.923Z,1009.17
2018-11-02T05:48:16.387Z,1009.19
2018-11-02T05:48:57.298Z,1009.2
2018-11-02T05:49:37.432Z,1009.22
2018-11-02T05:50:17.927Z,1009.23
2018-11-02T05:50:58.149Z,1009.2
2018-11-02T05:51:38.828Z,1009.29
2018-11-02T05:52:19.934Z,1009.28
2018-11-02T05:53:00.343Z,1009.3
2018-11-02T05:53:40.808Z,1009.29
2018-11-02T05:54:21.290Z,1009.32
2018-11-02T05:55:01.572Z,1009.32
2018-11-02T05:55:41.946Z,1009.31
2018-11-02T05:56:22.361Z,1009.32
2018-11-02T05:57:03.238Z,1009.32
2018-11-02T05:57:43.445Z,1009.32
2018-11-02T05:58:23.819Z,1009.36
2018-11-02T05:59:04.268Z,1009.34
2018-11-02T05:59:44.690Z,1009.39
2018-11-02T06:00:25.259Z,1009.39
2018-11-02T06:01:05.619Z,1009.37
2018-11-02T06:01:46.247Z,1009.4
2018-11-02T06:02:26.416Z,1009.37
2018-11-02T06:03:06.811Z,1009.38
2018-11-02T06:03:47.245Z,1009.38
2018-11-02T06:04:27.661Z,1009.37
2018-11-02T06:05:07.980Z,1009.42
2018-11-02T06:05:48.419Z,1009.39
2018-11-02T06:06:28.811Z,1009.44
2018-11-02T06:07:09.386Z,1009.45
2018-11-02T06:07:49.812Z,1009.44
2018-11-02T06:08:30.130Z,1009.45
2018-11-02T06:09:10.575Z,1009.43
2018-11-02T06:09:51.152Z,1009.47
2018-11-02T06:10:31.592Z,1009.46
2018-11-02T06:11:11.985Z,1009.47
2018-11-02T06:11:52.547Z,1009.47
2018-11-02T06:12:32.968Z,1009.45
2018-11-02T06:13:13.893Z,1009.46
2018-11-02T06:13:53.858Z,1009.45
2018-11-02T06:14:34.244Z,1009.52
2018-11-02T06:15:14.669Z,1009.51
2018-11-02T06:15:55.071Z,1009.51
2018-11-02T06:16:36.166Z,1009.49
2018-11-02T06:17:15.886Z,1009.49
2018-11-02T06:17:56.283Z,1009.52
2018-11-02T06:18:36.692Z,1009.57
2018-11-02T06:19:17.170Z,1009.55
2018-11-02T06:19:57.628Z,1009.6
2018-11-02T06:20:38.143Z,1009.59
2018-11-02T06:21:18.558Z,1009.57
2018-11-02T06:21:59.537Z,1009.6
2018-11-02T06:22:39.891Z,1009.62
2018-11-02T06:23:20.360Z,1009.64
2018-11-02T06:24:00.757Z,1009.69
2018-11-02T06:24:41.167Z,1009.66
2018-11-02T06:25:21.624Z,1009.7
2018-11-02T06:26:01.932Z,1009.72
2018-11-02T06:26:42.519Z,1009.72
2018-11-02T06:27:22.972Z,1009.72
2018-11-02T06:28:03.162Z,1009.7
2018-11-02T06:28:43.639Z,1009.75
2018-11-02T06:29:24.001Z,1009.79
2018-11-02T06:30:05.093Z,1009.8
2018-11-02T06:30:45.252Z,1009.81
2018-11-02T06:31:25.607Z,1009.8
2018-11-02T06:32:06.012Z,1009.84
2018-11-02T06:32:46.432Z,1009.84
2018-11-02T06:33:26.890Z,1009.9
2018-11-02T06:34:07.222Z,1009.91
2018-11-02T06:34:47.671Z,1009.92
2018-11-02T06:35:28.079Z,1009.96
2018-11-02T06:36:08.460Z,1009.98
2018-11-02T06:36:48.906Z,1010.03
2018-11-02T06:37:29.444Z,1010.01
2018-11-02T06:38:09.786Z,1010.07
2018-11-02T06:38:50.439Z,1010.04
2018-11-02T06:39:30.694Z,1010.08
2018-11-02T06:40:10.965Z,1010.06
2018-11-02T06:40:51.406Z,1010.1
2018-11-02T06:41:31.784Z,1010.13
2018-11-02T06:42:12.192Z,1010.16
2018-11-02T06:42:52.615Z,1010.14
2018-11-02T06:43:33.156Z,1010.16
2018-11-02T06:44:13.544Z,1010.19
2018-11-02T06:44:53.990Z,1010.19
2018-11-02T06:45:34.306Z,1010.2
2018-11-02T06:46:14.925Z,1010.21
2018-11-02T06:46:55.520Z,1010.24
2018-11-02T06:47:36.012Z,1010.26
2018-11-02T06:48:16.403Z,1010.26
2018-11-02T06:48:56.825Z,1010.28
2018-11-02T06:49:37.254Z,1010.26
2018-11-02T06:50:17.711Z,1010.26
2018-11-02T06:50:58.204Z,1010.31
2018-11-02T06:51:38.527Z,1010.26
2018-11-02T06:52:18.991Z,1010.29
2018-11-02T06:52:59.353Z,1010.31
2018-11-02T06:53:39.810Z,1010.32
2018-11-02T06:54:20.213Z,1010.33
2018-11-02T06:55:00.622Z,1010.32
2018-11-02T06:55:40.985Z,1010.34
2018-11-02T06:56:21.411Z,1010.36
2018-11-02T06:57:01.770Z,1010.37
2018-11-02T06:57:42.179Z,1010.38
2018-11-02T06:58:22.579Z,1010.41
2018-11-02T06:59:03.109Z,1010.43
2018-11-02T06:59:43.571Z,1010.41
2018-11-02T07:00:23.834Z,1010.44
2018-11-02T07:02:42.952Z,1010.46
2018-11-02T07:03:23.734Z,1010.45
2018-11-02T07:04:04.233Z,1010.47
2018-11-02T07:04:44.650Z,1010.5
2018-11-02T07:05:25.024Z,1010.49
2018-11-02T07:06:05.420Z,1010.47
2018-11-02T07:06:45.801Z,1010.51
2018-11-02T07:07:26.440Z,1010.56
2018-11-02T07:08:06.755Z,1010.6
2018-11-02T07:08:47.001Z,1010.53
2018-11-02T07:09:27.432Z,1010.57
2018-11-02T07:10:07.921Z,1010.61
2018-11-02T07:10:48.281Z,1010.61
2018-11-02T07:11:28.698Z,1010.62
2018-11-02T07:12:09.086Z,1010.65
2018-11-02T07:12:49.516Z,1010.65
2018-11-02T07:13:29.954Z,1010.66
2018-11-02T07:14:10.337Z,1010.67
2018-11-02T07:14:50.856Z,1010.7
2018-11-02T07:15:31.323Z,1010.7
2018-11-02T07:16:11.664Z,1010.69
2018-11-02T07:16:52.081Z,1010.74
2018-11-02T07:17:32.462Z,1010.78
2018-11-02T07:18:12.870Z,1010.76
2018-11-02T07:18:53.244Z,1010.77
2018-11-02T07:19:33.649Z,1010.74
2018-11-02T07:20:14.066Z,1010.82
2018-11-02T07:20:54.869Z,1010.85
2018-11-02T07:21:35.272Z,1010.84
2018-11-02T07:22:15.636Z,1010.84
2018-11-02T07:22:56.042Z,1010.84
2018-11-02T07:23:36.484Z,1010.84
2018-11-02T07:24:17.184Z,1010.86
2018-11-02T07:24:57.598Z,1010.9
2018-11-02T07:25:37.938Z,1010.92
2018-11-02T07:26:18.381Z,1010.88
2018-11-02T07:26:58.889Z,1010.87
2018-11-02T07:27:39.130Z,1010.9
2018-11-02T07:28:19.634Z,1010.87
2018-11-02T07:29:00.050Z,1010.89
2018-11-02T07:29:41.006Z,1010.9
2018-11-02T07:30:21.320Z,1010.88
2018-11-02T07:31:01.710Z,1010.86
2018-11-02T07:31:42.147Z,1010.88
2018-11-02T07:32:23.006Z,1010.89
2018-11-02T07:33:03.354Z,1010.89
2018-11-02T07:33:43.800Z,1010.89
2018-11-02T07:34:24.934Z,1010.9
2018-11-02T07:35:05.138Z,1010.92
2018-11-02T07:35:45.581Z,1010.93
2018-11-02T07:36:26.088Z,1010.93
2018-11-02T07:37:06.583Z,1010.93
2018-11-02T07:37:47.113Z,1010.91
2018-11-02T07:38:27.468Z,1010.96
2018-11-02T07:39:08.085Z,1010.96
2018-11-02T07:39:48.624Z,1010.93
2018-11-02T07:40:29.682Z,1010.91
2018-11-02T07:41:10.051Z,1010.93
2018-11-02T07:41:50.656Z,1010.97
2018-11-02T07:42:31.115Z,1010.93
2018-11-02T07:43:11.585Z,1010.95
2018-11-02T07:43:52.063Z,1010.96
2018-11-02T07:44:32.537Z,1010.94
2018-11-02T07:45:12.804Z,1010.99
2018-11-02T07:45:53.235Z,1010.99
2018-11-02T07:46:33.602Z,1011.04
2018-11-02T07:47:14.426Z,1010.95
2018-11-02T07:47:54.920Z,1011.01
2018-11-02T07:48:35.577Z,1010.94
2018-11-02T07:49:16.266Z,1010.96
2018-11-02T07:49:57.529Z,1010.98
2018-11-02T07:50:37.868Z,1010.97
2018-11-02T07:51:18.376Z,1010.97
2018-11-02T07:51:58.768Z,1010.96
2018-11-02T07:52:39.122Z,1011
2018-11-02T07:53:19.581Z,1011
2018-11-02T07:54:00.409Z,1011.01
2018-11-02T07:54:41.069Z,1011
2018-11-02T07:55:21.390Z,1011
2018-11-02T07:56:02.137Z,1011.04
2018-11-02T07:56:42.368Z,1011.07
2018-11-02T07:57:22.972Z,1011.03
2018-11-02T07:58:03.806Z,1011.03
2018-11-02T07:58:44.379Z,1011.09
2018-11-02T07:59:24.686Z,1011.06
2018-11-02T08:00:05.114Z,1011.06
2018-11-02T08:00:47.428Z,1011.07
2018-11-02T08:06:19.626Z,1010.94
2018-11-02T08:07:07.095Z,1010.92
2018-11-02T08:07:47.682Z,1010.93
2018-11-02T08:08:28.172Z,1010.97
2018-11-02T08:09:09.739Z,1010.96
2018-11-02T08:09:54.117Z,1010.93
2018-11-02T08:10:35.171Z,1010.99
2018-11-02T08:11:15.992Z,1010.99
2018-11-02T08:11:56.374Z,1011.02
2018-11-02T08:12:39.912Z,1011.09
2018-11-02T08:13:20.407Z,1011.09
2018-11-02T08:14:00.849Z,1011.12
2018-11-02T08:14:41.649Z,1011.17
2018-11-02T08:15:23.209Z,1011.17
2018-11-02T08:16:05.015Z,1011.2
2018-11-02T08:16:45.979Z,1011.21
2018-11-02T08:17:27.546Z,1011.22
2018-11-02T08:18:16.704Z,1011.25
2018-11-02T08:18:58.039Z,1011.26
2018-11-02T08:19:38.208Z,1011.31
2018-11-02T08:20:19.266Z,1011.29
2018-11-02T08:21:00.659Z,1011.34
2018-11-02T08:21:41.094Z,1011.39
2018-11-02T08:22:21.903Z,1011.44
2018-11-02T08:24:14.316Z,1011.41
2018-11-02T08:24:54.707Z,1011.42
2018-11-02T08:25:35.216Z,1011.45
2018-11-02T08:26:15.688Z,1011.46
2018-11-02T08:26:56.111Z,1011.49
2018-11-02T08:27:37.277Z,1011.5
2018-11-02T08:28:17.766Z,1011.51
2018-11-02T08:28:59.463Z,1011.51
2018-11-02T08:29:39.921Z,1011.54
2018-11-02T08:30:20.345Z,1011.56
2018-11-02T08:31:00.862Z,1011.57
2018-11-02T08:31:41.647Z,1011.6
2018-11-02T08:32:21.855Z,1011.61
2018-11-02T08:33:02.572Z,1011.64
2018-11-02T08:33:43.819Z,1011.58
2018-11-02T08:34:24.347Z,1011.6
2018-11-02T08:35:04.785Z,1011.6
2018-11-02T08:35:45.324Z,1011.59
2018-11-02T08:36:26.923Z,1011.58
2018-11-02T08:37:07.407Z,1011.6
2018-11-02T08:37:47.797Z,1011.55
2018-11-02T08:38:28.174Z,1011.57
2018-11-02T08:39:08.588Z,1011.59
2018-11-02T08:39:49.043Z,1011.64
2018-11-02T08:42:17.778Z,1011.69
2018-11-02T08:42:58.626Z,1011.7
2018-11-02T08:43:39.358Z,1011.74
2018-11-02T08:44:19.680Z,1011.73
2018-11-02T08:45:00.098Z,1011.76
2018-11-02T08:45:40.488Z,1011.73
2018-11-02T08:46:20.966Z,1011.75
2018-11-02T08:52:30.584Z,1011.73
2018-11-02T08:53:11.103Z,1011.74
2018-11-02T08:53:51.527Z,1011.68
2018-11-02T08:54:32.045Z,1011.75
2018-11-02T08:55:13.266Z,1011.73
2018-11-02T08:55:54.973Z,1011.74
2018-11-02T08:56:35.894Z,1011.75
2018-11-02T08:57:16.448Z,1011.76
2018-11-02T08:57:57.103Z,1011.83
2018-11-02T08:58:37.767Z,1011.86
2018-11-02T08:59:18.124Z,1011.82
2018-11-02T08:59:58.413Z,1011.86
2018-11-02T09:00:38.822Z,1011.84
2018-11-02T09:01:19.247Z,1011.85
2018-11-02T09:02:03.096Z,1011.86
2018-11-02T09:02:43.597Z,1011.84
2018-11-02T09:03:24.057Z,1011.89
2018-11-02T09:04:04.689Z,1011.9
2018-11-02T09:04:45.121Z,1011.81
2018-11-02T09:05:25.522Z,1011.89
2018-11-02T09:06:06.118Z,1011.91
2018-11-02T09:06:47.234Z,1011.91
2018-11-02T09:07:27.629Z,1011.93
2018-11-02T09:08:08.314Z,1011.96
2018-11-02T09:08:51.753Z,1011.95
2018-11-02T09:09:32.191Z,1011.9
2018-11-02T09:10:12.747Z,1011.98
2018-11-02T09:10:54.068Z,1011.94
2018-11-02T09:11:35.356Z,1011.98
2018-11-02T09:12:15.862Z,1012.02
2018-11-02T09:12:56.179Z,1011.96